sensor_id;sensor_type;location;lat;lon;timestamp;pressure;altitude;pressure_sealevel;temperature;humidity
49943;BME280;36011;53.362;58.948;2024-03-02T00:02:40;98375.22;;;-4.19;56.23
49943;BME280;36011;53.362;58.948;2024-03-02T00:05:42;98373.63;;;-4.14;55.92
49943;BME280;36011;53.362;58.948;2024-03-02T00:08:49;98373.66;;;-4.11;56.34
49943;BME280;36011;53.362;58.948;2024-03-02T00:11:53;98373.66;;;-4.13;56.34
49943;BME280;36011;53.362;58.948;2024-03-02T00:14:55;98378.84;;;-4.08;56.38
49943;BME280;36011;53.362;58.948;2024-03-02T00:17:56;98367.72;;;-4.09;56.74
49943;BME280;36011;53.362;58.948;2024-03-02T00:21:03;98378.03;;;-4.06;56.69
49943;BME280;36011;53.362;58.948;2024-03-02T00:24:17;98367.72;;;-4.09;56.68
49943;BME280;36011;53.362;58.948;2024-03-02T00:27:21;98365.91;;;-4.16;56.64
49943;BME280;36011;53.362;58.948;2024-03-02T00:33:55;98362.53;;;-4.12;56.41
49943;BME280;36011;53.362;58.948;2024-03-02T00:36:58;98364.19;;;-4.15;56.48
49943;BME280;36011;53.362;58.948;2024-03-02T00:40:03;98369.38;;;-4.11;56.59
49943;BME280;36011;53.362;58.948;2024-03-02T00:46:38;98371.09;;;-4.13;56.54
49943;BME280;36011;53.362;58.948;2024-03-02T00:49:43;98373.63;;;-4.14;56.72
49943;BME280;36011;53.362;58.948;2024-03-02T00:52:52;98363.19;;;-4.22;56.95
49943;BME280;36011;53.362;58.948;2024-03-02T00:55:53;98370.97;;;-4.19;56.83
49943;BME280;36011;53.362;58.948;2024-03-02T00:59:01;98371.84;;;-4.18;56.94
49943;BME280;36011;53.362;58.948;2024-03-02T01:02:10;98368.41;;;-4.19;57.16
49943;BME280;36011;53.362;58.948;2024-03-02T01:05:17;98370.97;;;-4.19;57.49
49943;BME280;36011;53.362;58.948;2024-03-02T01:08:19;98364.09;;;-4.20;57.21
49943;BME280;36011;53.362;58.948;2024-03-02T01:11:20;98363.28;;;-4.19;57.29
49943;BME280;36011;53.362;58.948;2024-03-02T01:14:24;98369.28;;;-4.17;57.35
49943;BME280;36011;53.362;58.948;2024-03-02T01:17:28;98365.84;;;-4.19;57.15
49943;BME280;36011;53.362;58.948;2024-03-02T01:20:37;98363.13;;;-4.26;57.54
49943;BME280;36011;53.362;58.948;2024-03-02T01:23:38;98373.31;;;-4.31;57.74
49943;BME280;36011;53.362;58.948;2024-03-02T01:26:40;98356.91;;;-4.39;57.58
49943;BME280;36011;53.362;58.948;2024-03-02T01:29:41;98367.13;;;-4.42;57.37
49943;BME280;36011;53.362;58.948;2024-03-02T01:32:45;98371.44;;;-4.41;57.40
49943;BME280;36011;53.362;58.948;2024-03-02T01:35:46;98370.63;;;-4.37;57.69
49943;BME280;36011;53.362;58.948;2024-03-02T01:38:54;98379.25;;;-4.35;57.91
49943;BME280;36011;53.362;58.948;2024-03-02T01:42:02;98376.75;;;-4.32;57.30
49943;BME280;36011;53.362;58.948;2024-03-02T01:45:08;98375.03;;;-4.32;57.65
49943;BME280;36011;53.362;58.948;2024-03-02T01:48:12;98381.03;;;-4.31;57.63
49943;BME280;36011;53.362;58.948;2024-03-02T01:51:16;98386.16;;;-4.31;57.74
49943;BME280;36011;53.362;58.948;2024-03-02T01:54:19;98384.44;;;-4.32;57.22
49943;BME280;36011;53.362;58.948;2024-03-02T01:57:21;98377.56;;;-4.33;57.54
49943;BME280;36011;53.362;58.948;2024-03-02T02:00:22;98381.03;;;-4.31;57.45
49943;BME280;36011;53.362;58.948;2024-03-02T02:03:25;98387.06;;;-4.29;57.56
49943;BME280;36011;53.362;58.948;2024-03-02T02:06:34;98394.84;;;-4.26;57.55
49943;BME280;36011;53.362;58.948;2024-03-02T02:09:35;98387.22;;;-4.21;57.09
49943;BME280;36011;53.362;58.948;2024-03-02T02:12:39;98392.31;;;-4.23;57.46
49943;BME280;36011;53.362;58.948;2024-03-02T02:15:46;98401.94;;;-4.13;57.31
49943;BME280;36011;53.362;58.948;2024-03-02T02:18:52;98398.47;;;-4.15;57.17
49943;BME280;36011;53.362;58.948;2024-03-02T02:21:58;98407.19;;;-4.07;57.05
49943;BME280;36011;53.362;58.948;2024-03-02T02:25:04;98410.66;;;-4.04;56.72
49943;BME280;36011;53.362;58.948;2024-03-02T02:28:08;98397.00;;;-4.00;57.09
49943;BME280;36011;53.362;58.948;2024-03-02T02:31:12;98402.88;;;-4.08;56.34
49943;BME280;36011;53.362;58.948;2024-03-02T02:34:18;98398.50;;;-4.12;56.54
49943;BME280;36011;53.362;58.948;2024-03-02T02:37:24;98400.19;;;-4.14;56.64
49943;BME280;36011;53.362;58.948;2024-03-02T02:40:25;98398.47;;;-4.15;56.55
49943;BME280;36011;53.362;58.948;2024-03-02T02:43:26;98390.53;;;-4.27;56.88
49943;BME280;36011;53.362;58.948;2024-03-02T02:46:32;98388.84;;;-4.26;56.95
49943;BME280;36011;53.362;58.948;2024-03-02T02:49:36;98395.69;;;-4.27;57.16
49943;BME280;36011;53.362;58.948;2024-03-02T02:52:39;98398.25;;;-4.27;57.28
49943;BME280;36011;53.362;58.948;2024-03-02T02:55:41;98400.81;;;-4.27;57.05
49943;BME280;36011;53.362;58.948;2024-03-02T02:58:44;98411.00;;;-4.32;57.26
49943;BME280;36011;53.362;58.948;2024-03-02T03:01:45;98399.00;;;-4.33;57.44
49943;BME280;36011;53.362;58.948;2024-03-02T03:04:55;98403.03;;;-4.45;57.25
49943;BME280;36011;53.362;58.948;2024-03-02T03:08:00;98401.97;;;-4.57;57.64
49943;BME280;36011;53.362;58.948;2024-03-02T03:11:01;98407.84;;;-4.64;57.45
49943;BME280;36011;53.362;58.948;2024-03-02T03:14:05;98410.19;;;-4.75;58.12
49943;BME280;36011;53.362;58.948;2024-03-02T03:17:06;98406.66;;;-4.80;58.25
49943;BME280;36011;53.362;58.948;2024-03-02T03:20:14;98408.97;;;-4.90;57.76
49943;BME280;36011;53.362;58.948;2024-03-02T03:23:19;98409.78;;;-4.94;58.58
49943;BME280;36011;53.362;58.948;2024-03-02T03:26:24;98419.13;;;-4.97;58.09
49943;BME280;36011;53.362;58.948;2024-03-02T03:29:28;98412.28;;;-4.98;58.82
49943;BME280;36011;53.362;58.948;2024-03-02T03:32:32;98422.53;;;-4.98;58.36
49943;BME280;36011;53.362;58.948;2024-03-02T03:35:36;98430.31;;;-4.93;58.60
49943;BME280;36011;53.362;58.948;2024-03-02T03:38:40;98368.09;;;-5.24;58.32
49943;BME280;36011;53.362;58.948;2024-03-02T03:41:45;98438.19;;;-4.85;58.80
49943;BME280;36011;53.362;58.948;2024-03-02T03:44:48;98438.66;;;-4.64;58.35
49943;BME280;36011;53.362;58.948;2024-03-02T03:47:53;98441.50;;;-4.50;57.98
49943;BME280;36011;53.362;58.948;2024-03-02T03:50:59;98439.16;;;-4.36;58.24
49943;BME280;36011;53.362;58.948;2024-03-02T03:54:02;98446.34;;;-4.21;57.75
49943;BME280;36011;53.362;58.948;2024-03-02T03:57:07;98452.59;;;-4.06;57.50
49943;BME280;36011;53.362;58.948;2024-03-02T04:00:12;98457.19;;;-3.89;57.05
49943;BME280;36011;53.362;58.948;2024-03-02T04:03:18;98463.44;;;-3.76;56.72
49943;BME280;36011;53.362;58.948;2024-03-02T04:06:21;98465.34;;;-3.65;56.40
49943;BME280;36011;53.362;58.948;2024-03-02T04:09:25;98464.63;;;-3.54;56.30
49943;BME280;36011;53.362;58.948;2024-03-02T04:12:29;98468.16;;;-3.49;56.12
49943;BME280;36011;53.362;58.948;2024-03-02T04:15:33;98458.81;;;-3.44;56.29
49943;BME280;36011;53.362;58.948;2024-03-02T04:18:35;98465.75;;;-3.37;55.68
49943;BME280;36011;53.362;58.948;2024-03-02T04:21:38;98476.28;;;-3.23;55.59
49943;BME280;36011;53.362;58.948;2024-03-02T04:24:42;98422.13;;;-3.31;55.19
49943;BME280;36011;53.362;58.948;2024-03-02T04:27:48;98459.47;;;-3.00;54.87
49943;BME280;36011;53.362;58.948;2024-03-02T04:30:52;98472.50;;;-2.89;54.57
49943;BME280;36011;53.362;58.948;2024-03-02T04:33:56;98467.34;;;-2.89;54.45
49943;BME280;36011;53.362;58.948;2024-03-02T04:37:00;98473.38;;;-2.88;54.51
49943;BME280;36011;53.362;58.948;2024-03-02T04:40:02;98483.75;;;-2.82;54.14
49943;BME280;36011;53.362;58.948;2024-03-02T04:43:04;98470.84;;;-2.84;53.98
49943;BME280;36011;53.362;58.948;2024-03-02T04:46:06;98480.44;;;-2.74;54.18
49943;BME280;36011;53.362;58.948;2024-03-02T04:49:15;98485.78;;;-2.58;53.60
49943;BME280;36011;53.362;58.948;2024-03-02T04:52:19;98487.59;;;-2.53;53.11
49943;BME280;36011;53.362;58.948;2024-03-02T04:55:25;98482.56;;;-2.43;53.18
49943;BME280;36011;53.362;58.948;2024-03-02T04:58:30;98480.91;;;-2.37;52.51
49943;BME280;36011;53.362;58.948;2024-03-02T05:01:36;98483.59;;;-2.28;52.48
49943;BME280;36011;53.362;58.948;2024-03-02T05:04:40;98488.81;;;-2.21;52.32
49943;BME280;36011;53.362;58.948;2024-03-02T05:07:48;98482.84;;;-2.19;52.36
49943;BME280;36011;53.362;58.948;2024-03-02T05:10:55;98485.50;;;-2.11;52.13
49943;BME280;36011;53.362;58.948;2024-03-02T05:14:18;98475.34;;;-1.96;51.87
49943;BME280;36011;53.362;58.948;2024-03-02T05:17:20;98478.91;;;-1.85;51.30
49943;BME280;36011;53.362;58.948;2024-03-02T05:20:23;98482.47;;;-1.75;50.78
49943;BME280;36011;53.362;58.948;2024-03-02T05:23:27;98484.31;;;-1.60;51.02
49943;BME280;36011;53.362;58.948;2024-03-02T05:26:30;98485.31;;;-1.44;50.77
49943;BME280;36011;53.362;58.948;2024-03-02T05:29:34;98493.13;;;-1.33;49.87
49943;BME280;36011;53.362;58.948;2024-03-02T05:32:42;98486.34;;;-1.22;50.16
49943;BME280;36011;53.362;58.948;2024-03-02T05:35:46;98495.88;;;-1.15;49.94
49943;BME280;36011;53.362;58.948;2024-03-02T05:38:50;98486.47;;;-1.07;48.92
49943;BME280;36011;53.362;58.948;2024-03-02T05:41:54;98485.69;;;-0.95;48.99
49943;BME280;36011;53.362;58.948;2024-03-02T05:44:56;98484.09;;;-0.76;49.52
49943;BME280;36011;53.362;58.948;2024-03-02T05:48:00;98486.19;;;0.15;47.50
49943;BME280;36011;53.362;58.948;2024-03-02T05:51:04;98484.75;;;4.84;40.35
49943;BME280;36011;53.362;58.948;2024-03-02T05:54:07;98489.16;;;9.62;33.88
49943;BME280;36011;53.362;58.948;2024-03-02T05:57:11;98493.13;;;13.26;29.28
49943;BME280;36011;53.362;58.948;2024-03-02T06:00:33;98503.38;;;16.33;26.06
49943;BME280;36011;53.362;58.948;2024-03-02T06:03:34;98493.56;;;18.22;23.51
49943;BME280;36011;53.362;58.948;2024-03-02T06:06:38;98500.38;;;19.85;21.96
49943;BME280;36011;53.362;58.948;2024-03-02T06:09:43;98493.09;;;20.99;20.32
49943;BME280;36011;53.362;58.948;2024-03-02T06:12:45;98489.59;;;20.88;19.50
49943;BME280;36011;53.362;58.948;2024-03-02T06:15:55;98490.97;;;21.58;18.78
49943;BME280;36011;53.362;58.948;2024-03-02T06:18:57;98488.16;;;22.01;17.45
49943;BME280;36011;53.362;58.948;2024-03-02T06:21:59;98478.41;;;22.52;17.27
49943;BME280;36011;53.362;58.948;2024-03-02T06:25:01;98488.91;;;23.63;16.17
49943;BME280;36011;53.362;58.948;2024-03-02T06:28:02;98484.91;;;24.16;15.71
49943;BME280;36011;53.362;58.948;2024-03-02T06:31:07;98492.94;;;24.26;14.97
49943;BME280;36011;53.362;58.948;2024-03-02T06:34:13;98493.19;;;23.27;14.34
49943;BME280;36011;53.362;58.948;2024-03-02T06:37:19;98502.25;;;23.74;14.61
49943;BME280;36011;53.362;58.948;2024-03-02T06:40:23;98486.13;;;24.31;14.04
49943;BME280;36011;53.362;58.948;2024-03-02T06:43:24;98485.69;;;25.28;13.27
49943;BME280;36011;53.362;58.948;2024-03-02T06:46:30;98491.66;;;25.76;13.13
49943;BME280;36011;53.362;58.948;2024-03-02T06:49:32;98495.06;;;25.60;12.82
49943;BME280;36011;53.362;58.948;2024-03-02T06:52:33;98488.78;;;25.95;12.97
49943;BME280;36011;53.362;58.948;2024-03-02T06:55:40;98487.16;;;26.55;12.28
49943;BME280;36011;53.362;58.948;2024-03-02T06:58:41;98494.44;;;27.05;12.16
49943;BME280;36011;53.362;58.948;2024-03-02T07:01:46;98490.34;;;28.09;11.38
49943;BME280;36011;53.362;58.948;2024-03-02T07:04:50;98489.94;;;28.53;10.78
49943;BME280;36011;53.362;58.948;2024-03-02T07:07:53;98476.59;;;28.51;10.95
49943;BME280;36011;53.362;58.948;2024-03-02T07:10:55;98486.84;;;30.04;11.11
49943;BME280;36011;53.362;58.948;2024-03-02T07:14:00;98487.19;;;28.61;10.72
49943;BME280;36011;53.362;58.948;2024-03-02T07:17:01;98489.19;;;29.15;10.42
49943;BME280;36011;53.362;58.948;2024-03-02T07:20:05;98493.97;;;29.04;10.16
49943;BME280;36011;53.362;58.948;2024-03-02T07:23:10;98491.22;;;29.13;9.87
49943;BME280;36011;53.362;58.948;2024-03-02T07:26:14;98491.94;;;29.06;9.67
49943;BME280;36011;53.362;58.948;2024-03-02T07:29:18;98488.75;;;28.39;10.15
49943;BME280;36011;53.362;58.948;2024-03-02T07:32:25;98486.75;;;28.88;9.75
49943;BME280;36011;53.362;58.948;2024-03-02T07:35:30;98488.59;;;29.96;9.75
49943;BME280;36011;53.362;58.948;2024-03-02T07:38:38;98489.97;;;30.60;9.19
49943;BME280;36011;53.362;58.948;2024-03-02T07:41:47;98486.03;;;31.07;9.11
49943;BME280;36011;53.362;58.948;2024-03-02T07:44:57;98481.19;;;30.87;8.81
49943;BME280;36011;53.362;58.948;2024-03-02T07:48:03;98481.19;;;29.90;9.55
49943;BME280;36011;53.362;58.948;2024-03-02T07:51:09;98484.78;;;29.68;9.11
49943;BME280;36011;53.362;58.948;2024-03-02T07:54:11;98482.69;;;28.45;9.87
49943;BME280;36011;53.362;58.948;2024-03-02T07:57:13;98471.91;;;26.46;10.69
49943;BME280;36011;53.362;58.948;2024-03-02T08:00:14;98468.50;;;25.29;10.89
49943;BME280;36011;53.362;58.948;2024-03-02T08:03:16;98467.69;;;23.99;12.08
49943;BME280;36011;53.362;58.948;2024-03-02T08:06:23;98461.72;;;24.42;11.94
49943;BME280;36011;53.362;58.948;2024-03-02T08:09:31;98455.31;;;25.08;11.39
49943;BME280;36011;53.362;58.948;2024-03-02T08:12:38;98452.13;;;24.77;11.70
49943;BME280;36011;53.362;58.948;2024-03-02T08:15:45;98447.72;;;24.39;11.65
49943;BME280;36011;53.362;58.948;2024-03-02T08:18:47;98458.78;;;24.36;11.72
49943;BME280;36011;53.362;58.948;2024-03-02T08:21:53;98453.03;;;23.25;12.48
49943;BME280;36011;53.362;58.948;2024-03-02T08:24:56;98436.97;;;22.25;12.93
49943;BME280;36011;53.362;58.948;2024-03-02T08:28:00;98439.59;;;21.94;12.89
49943;BME280;36011;53.362;58.948;2024-03-02T08:31:04;98427.63;;;21.15;13.59
49943;BME280;36011;53.362;58.948;2024-03-02T08:34:10;98425.59;;;21.28;13.43
49943;BME280;36011;53.362;58.948;2024-03-02T08:37:13;98433.97;;;20.36;14.05
49943;BME280;36011;53.362;58.948;2024-03-02T08:40:15;98424.78;;;19.60;14.55
49943;BME280;36011;53.362;58.948;2024-03-02T08:43:16;98426.63;;;19.36;15.01
49943;BME280;36011;53.362;58.948;2024-03-02T08:46:21;98424.72;;;19.38;15.01
49943;BME280;36011;53.362;58.948;2024-03-02T08:49:28;98427.53;;;20.28;14.66
49943;BME280;36011;53.362;58.948;2024-03-02T08:52:29;98427.84;;;19.78;14.58
49943;BME280;36011;53.362;58.948;2024-03-02T08:55:32;98423.16;;;19.46;14.91
49943;BME280;36011;53.362;58.948;2024-03-02T08:58:36;98416.28;;;19.20;15.39
49943;BME280;36011;53.362;58.948;2024-03-02T09:01:57;98420.34;;;18.77;15.76
49943;BME280;36011;53.362;58.948;2024-03-02T09:05:01;98415.81;;;17.91;16.10
49943;BME280;36011;53.362;58.948;2024-03-02T09:08:05;98419.19;;;18.19;15.86
49943;BME280;36011;53.362;58.948;2024-03-02T09:11:09;98399.84;;;17.91;16.19
49943;BME280;36011;53.362;58.948;2024-03-02T09:14:14;98408.78;;;18.03;16.37
49943;BME280;36011;53.362;58.948;2024-03-02T09:17:19;98406.09;;;18.53;16.21
49943;BME280;36011;53.362;58.948;2024-03-02T09:20:23;98401.84;;;19.11;15.68
49943;BME280;36011;53.362;58.948;2024-03-02T09:23:26;98406.88;;;18.79;15.99
49943;BME280;36011;53.362;58.948;2024-03-02T09:26:28;98404.28;;;18.16;16.34
49943;BME280;36011;53.362;58.948;2024-03-02T09:29:35;98400.25;;;17.72;16.47
49943;BME280;36011;53.362;58.948;2024-03-02T09:32:39;98407.06;;;17.77;16.88
49943;BME280;36011;53.362;58.948;2024-03-02T09:35:40;98405.97;;;17.28;17.23
49943;BME280;36011;53.362;58.948;2024-03-02T09:38:44;98406.53;;;16.93;17.37
49943;BME280;36011;53.362;58.948;2024-03-02T09:41:48;98396.41;;;16.44;17.88
49943;BME280;36011;53.362;58.948;2024-03-02T09:44:50;98388.22;;;16.47;17.89
49943;BME280;36011;53.362;58.948;2024-03-02T09:47:54;98395.56;;;14.99;19.36
49943;BME280;36011;53.362;58.948;2024-03-02T09:50:56;98391.38;;;14.33;20.06
49943;BME280;36011;53.362;58.948;2024-03-02T09:54:03;98399.38;;;14.79;19.81
49943;BME280;36011;53.362;58.948;2024-03-02T09:57:13;98389.75;;;13.81;20.95
49943;BME280;36011;53.362;58.948;2024-03-02T10:00:15;98391.34;;;14.17;20.63
49943;BME280;36011;53.362;58.948;2024-03-02T10:03:20;98392.38;;;14.62;20.28
49943;BME280;36011;53.362;58.948;2024-03-02T10:06:29;98402.31;;;14.89;20.08
49943;BME280;36011;53.362;58.948;2024-03-02T10:09:33;98383.56;;;15.08;19.88
49943;BME280;36011;53.362;58.948;2024-03-02T10:12:38;98391.91;;;14.86;20.18
49943;BME280;36011;53.362;58.948;2024-03-02T10:15:40;98379.44;;;13.92;21.09
49943;BME280;36011;53.362;58.948;2024-03-02T10:18:45;98397.50;;;14.02;21.26
49943;BME280;36011;53.362;58.948;2024-03-02T10:24:55;98396.22;;;12.18;22.99
49943;BME280;36011;53.362;58.948;2024-03-02T10:28:00;98405.56;;;11.46;23.83
49943;BME280;36011;53.362;58.948;2024-03-02T10:31:02;98390.69;;;11.45;24.18
49943;BME280;36011;53.362;58.948;2024-03-02T10:34:06;98381.06;;;12.40;23.45
49943;BME280;36011;53.362;58.948;2024-03-02T10:37:08;98382.94;;;13.27;22.66
49943;BME280;36011;53.362;58.948;2024-03-02T10:40:11;98390.63;;;13.98;21.94
49943;BME280;36011;53.362;58.948;2024-03-02T10:43:16;98376.56;;;14.45;21.46
49943;BME280;36011;53.362;58.948;2024-03-02T10:46:22;98387.69;;;14.67;21.27
49943;BME280;36011;53.362;58.948;2024-03-02T10:49:27;98391.38;;;14.65;21.22
49943;BME280;36011;53.362;58.948;2024-03-02T10:52:37;98396.97;;;14.11;21.94
49943;BME280;36011;53.362;58.948;2024-03-02T10:55:43;98384.63;;;13.78;22.39
49943;BME280;36011;53.362;58.948;2024-03-02T10:58:45;98374.88;;;13.63;22.50
49943;BME280;36011;53.362;58.948;2024-03-02T11:01:50;98384.16;;;13.87;22.52
49943;BME280;36011;53.362;58.948;2024-03-02T11:04:55;98382.44;;;14.18;22.09
49943;BME280;36011;53.362;58.948;2024-03-02T11:08:11;98385.78;;;14.06;22.21
49943;BME280;36011;53.362;58.948;2024-03-02T11:11:17;98372.28;;;13.79;22.49
49943;BME280;36011;53.362;58.948;2024-03-02T11:14:24;98363.97;;;13.36;22.62
49943;BME280;36011;53.362;58.948;2024-03-02T11:17:31;98378.13;;;12.83;23.35
49943;BME280;36011;53.362;58.948;2024-03-02T11:20:42;98371.53;;;12.19;24.12
49943;BME280;36011;53.362;58.948;2024-03-02T11:23:52;98367.06;;;11.62;24.72
49943;BME280;36011;53.362;58.948;2024-03-02T11:27:02;98367.28;;;11.18;25.11
49943;BME280;36011;53.362;58.948;2024-03-02T11:30:09;98359.47;;;10.95;25.40
49943;BME280;36011;53.362;58.948;2024-03-02T11:33:30;98364.00;;;10.28;25.87
49943;BME280;36011;53.362;58.948;2024-03-02T11:36:32;98356.69;;;9.19;27.36
49943;BME280;36011;53.362;58.948;2024-03-02T11:39:34;98357.41;;;8.46;28.08
49943;BME280;36011;53.362;58.948;2024-03-02T11:42:36;98355.81;;;8.14;29.07
49943;BME280;36011;53.362;58.948;2024-03-02T11:45:44;98368.06;;;7.83;29.57
49943;BME280;36011;53.362;58.948;2024-03-02T11:48:46;98372.91;;;7.97;29.46
49943;BME280;36011;53.362;58.948;2024-03-02T11:52:00;98371.75;;;8.06;29.72
49943;BME280;36011;53.362;58.948;2024-03-02T11:55:05;98364.59;;;8.13;29.04
49943;BME280;36011;53.362;58.948;2024-03-02T11:58:14;98357.91;;;8.02;29.23
49943;BME280;36011;53.362;58.948;2024-03-02T12:01:23;98351.19;;;7.94;29.94
49943;BME280;36011;53.362;58.948;2024-03-02T12:04:29;98347.28;;;7.79;30.03
49943;BME280;36011;53.362;58.948;2024-03-02T12:07:36;98352.22;;;7.27;30.72
49943;BME280;36011;53.362;58.948;2024-03-02T12:10:43;98351.59;;;6.86;31.51
49943;BME280;36011;53.362;58.948;2024-03-02T12:13:53;98353.63;;;6.77;31.35
49943;BME280;36011;53.362;58.948;2024-03-02T12:17:01;98353.72;;;6.38;32.21
49943;BME280;36011;53.362;58.948;2024-03-02T12:20:07;98349.50;;;5.95;33.02
49943;BME280;36011;53.362;58.948;2024-03-02T12:23:11;98347.88;;;5.47;33.79
49943;BME280;36011;53.362;58.948;2024-03-02T12:26:15;98347.38;;;5.28;33.91
49943;BME280;36011;53.362;58.948;2024-03-02T12:29:18;98340.75;;;5.12;34.57
49943;BME280;36011;53.362;58.948;2024-03-02T12:32:21;98348.00;;;4.48;35.67
49943;BME280;36011;53.362;58.948;2024-03-02T12:35:24;98332.25;;;4.01;36.59
49943;BME280;36011;53.362;58.948;2024-03-02T12:38:28;98346.31;;;3.91;36.39
49943;BME280;36011;53.362;58.948;2024-03-02T12:41:35;98347.16;;;3.92;36.84
49943;BME280;36011;53.362;58.948;2024-03-02T12:44:40;98352.59;;;3.75;37.04
49943;BME280;36011;53.362;58.948;2024-03-02T12:47:45;98345.97;;;4.13;36.57
49943;BME280;36011;53.362;58.948;2024-03-02T12:50:47;98353.97;;;4.56;35.53
49943;BME280;36011;53.362;58.948;2024-03-02T12:53:55;98355.25;;;4.31;36.14
49943;BME280;36011;53.362;58.948;2024-03-02T12:57:00;98351.44;;;3.31;37.51
49943;BME280;36011;53.362;58.948;2024-03-02T13:00:07;98351.59;;;2.31;39.58
49943;BME280;36011;53.362;58.948;2024-03-02T13:03:19;98343.50;;;1.50;41.13
49943;BME280;36011;53.362;58.948;2024-03-02T13:06:28;98349.84;;;0.68;43.27
49943;BME280;36011;53.362;58.948;2024-03-02T13:09:30;98351.59;;;0.11;43.64
49943;BME280;36011;53.362;58.948;2024-03-02T13:12:38;98356.66;;;-0.52;45.69
49943;BME280;36011;53.362;58.948;2024-03-02T13:15:42;98354.00;;;-0.69;46.21
49943;BME280;36011;53.362;58.948;2024-03-02T13:18:46;98346.03;;;-1.23;46.94
49943;BME280;36011;53.362;58.948;2024-03-02T13:21:50;98346.75;;;-1.47;47.87
49943;BME280;36011;53.362;58.948;2024-03-02T13:24:55;98355.22;;;-1.66;47.25
49943;BME280;36011;53.362;58.948;2024-03-02T13:27:59;98356.88;;;-1.74;48.50
49943;BME280;36011;53.362;58.948;2024-03-02T13:31:09;98351.41;;;-2.11;49.15
49943;BME280;36011;53.362;58.948;2024-03-02T13:34:15;98355.56;;;-2.26;50.05
49943;BME280;36011;53.362;58.948;2024-03-02T13:37:17;98360.56;;;-2.42;50.26
49943;BME280;36011;53.362;58.948;2024-03-02T13:40:20;98330.91;;;-2.83;50.97
49943;BME280;36011;53.362;58.948;2024-03-02T13:43:24;98347.09;;;-2.93;51.16
49943;BME280;36011;53.362;58.948;2024-03-02T13:46:28;98348.78;;;-2.95;51.61
49943;BME280;36011;53.362;58.948;2024-03-02T13:49:29;98344.16;;;-3.22;52.12
49943;BME280;36011;53.362;58.948;2024-03-02T13:52:40;98335.25;;;-3.47;52.38
49943;BME280;36011;53.362;58.948;2024-03-02T13:55:41;98344.50;;;-3.57;52.77
49943;BME280;36011;53.362;58.948;2024-03-02T13:58:45;98345.50;;;-3.49;53.56
49943;BME280;36011;53.362;58.948;2024-03-02T14:01:47;98344.25;;;-3.74;53.57
49943;BME280;36011;53.362;58.948;2024-03-02T14:04:49;98340.91;;;-3.70;54.29
49943;BME280;36011;53.362;58.948;2024-03-02T14:07:52;98340.66;;;-3.85;54.05
49943;BME280;36011;53.362;58.948;2024-03-02T14:10:56;98346.56;;;-3.92;54.69
49943;BME280;36011;53.362;58.948;2024-03-02T14:14:04;98348.00;;;-4.08;54.86
49943;BME280;36011;53.362;58.948;2024-03-02T14:17:07;98353.97;;;-4.11;55.09
49943;BME280;36011;53.362;58.948;2024-03-02T14:20:15;98342.56;;;-4.26;55.13
49943;BME280;36011;53.362;58.948;2024-03-02T14:23:24;98344.28;;;-4.25;55.30
49943;BME280;36011;53.362;58.948;2024-03-02T14:26:29;98330.47;;;-4.32;55.94
49943;BME280;36011;53.362;58.948;2024-03-02T14:29:33;98345.16;;;-4.25;56.20
49943;BME280;36011;53.362;58.948;2024-03-02T14:32:40;98352.56;;;-4.43;56.83
49943;BME280;36011;53.362;58.948;2024-03-02T14:35:45;98347.03;;;-4.63;57.48
49943;BME280;36011;53.362;58.948;2024-03-02T14:38:48;98353.84;;;-4.67;57.07
49943;BME280;36011;53.362;58.948;2024-03-02T14:41:50;98331.38;;;-4.76;58.00
49943;BME280;36011;53.362;58.948;2024-03-02T14:44:55;98351.81;;;-4.83;58.10
49943;BME280;36011;53.362;58.948;2024-03-02T14:47:56;98342.84;;;-5.04;58.36
49943;BME280;36011;53.362;58.948;2024-03-02T14:51:03;98348.91;;;-4.99;58.06
49943;BME280;36011;53.362;58.948;2024-03-02T14:54:06;98325.69;;;-5.06;57.42
49943;BME280;36011;53.362;58.948;2024-03-02T14:57:08;98346.88;;;-4.72;57.74
49943;BME280;36011;53.362;58.948;2024-03-02T15:00:10;98343.69;;;-4.59;57.25
49943;BME280;36011;53.362;58.948;2024-03-02T15:03:12;98353.44;;;-4.41;57.29
49943;BME280;36011;53.362;58.948;2024-03-02T15:06:17;98344.63;;;-4.56;57.66
49943;BME280;36011;53.362;58.948;2024-03-02T15:09:23;98345.09;;;-4.28;57.20
49943;BME280;36011;53.362;58.948;2024-03-02T15:12:25;98334.16;;;-4.65;57.53
49943;BME280;36011;53.362;58.948;2024-03-02T15:15:32;98339.50;;;-4.54;58.25
49943;BME280;36011;53.362;58.948;2024-03-02T15:18:36;98331.66;;;-4.62;58.62
49943;BME280;36011;53.362;58.948;2024-03-02T15:21:37;98334.34;;;-4.56;58.39
49943;BME280;36011;53.362;58.948;2024-03-02T15:24:41;98332.22;;;-4.78;58.68
49943;BME280;36011;53.362;58.948;2024-03-02T15:27:42;98325.28;;;-4.82;59.14
49943;BME280;36011;53.362;58.948;2024-03-02T15:30:49;98323.44;;;-4.89;58.56
49943;BME280;36011;53.362;58.948;2024-03-02T15:33:57;98320.03;;;-4.88;59.42
49943;BME280;36011;53.362;58.948;2024-03-02T15:37:02;98323.31;;;-4.96;59.50
49943;BME280;36011;53.362;58.948;2024-03-02T15:40:07;98319.81;;;-5.01;59.52
49943;BME280;36011;53.362;58.948;2024-03-02T15:43:12;98322.78;;;-5.23;60.17
49943;BME280;36011;53.362;58.948;2024-03-02T15:46:14;98315.88;;;-5.24;59.75
49943;BME280;36011;53.362;58.948;2024-03-02T15:49:18;98316.91;;;-5.16;60.40
49943;BME280;36011;53.362;58.948;2024-03-02T15:52:20;98314.63;;;-5.02;59.36
49943;BME280;36011;53.362;58.948;2024-03-02T15:55:25;98307.25;;;-5.29;60.63
49943;BME280;36011;53.362;58.948;2024-03-02T15:58:29;98311.19;;;-5.44;61.06
49943;BME280;36011;53.362;58.948;2024-03-02T16:01:33;98309.53;;;-5.42;60.46
49943;BME280;36011;53.362;58.948;2024-03-02T16:04:34;98302.19;;;-5.66;60.84
49943;BME280;36011;53.362;58.948;2024-03-02T16:07:35;98303.81;;;-5.69;61.56
49943;BME280;36011;53.362;58.948;2024-03-02T16:10:36;98308.16;;;-5.67;61.88
49943;BME280;36011;53.362;58.948;2024-03-02T16:13:41;98305.56;;;-5.67;61.94
49943;BME280;36011;53.362;58.948;2024-03-02T16:16:47;98307.03;;;-5.78;61.47